Time;durP1;ratioP1;P1;durP2;ratioP2;P2;SDS_P1;SDS_P2;PMS_P1;PMS_P2;Temp;Humidity;BMP_temperature;BMP_pressure;BME280_temperature;BME280_humidity;BME280_pressure;Samples;Min_cycle;Max_cycle;Signal;HPM_P1;HPM_P2
2021/12/07 00:01:45;;;;;;;20.20;12.80;;;1.80;99.90;;;;;;5050140;28;20431;-68
2021/12/07 00:04:11;;;;;;;21.48;13.52;;;1.90;99.90;;;;;;5048483;28;20756;-68
2021/12/07 00:06:37;;;;;;;22.77;14.57;;;1.90;99.90;;;;;;5048654;28;20053;-68
2021/12/07 00:09:06;;;;;;;24.15;14.43;;;1.80;99.90;;;;;;5050201;28;20053;-68
2021/12/07 00:11:32;;;;;;;23.90;15.00;;;1.90;99.90;;;;;;5049363;28;20080;-68
2021/12/07 00:13:58;;;;;;;24.70;14.73;;;1.80;99.90;;;;;;5048841;28;20055;-68
2021/12/07 00:16:26;;;;;;;19.77;13.13;;;1.80;99.90;;;;;;5050361;28;20087;-68
2021/12/07 00:18:52;;;;;;;18.63;12.68;;;1.80;99.90;;;;;;5048250;28;20087;-68
2021/12/07 00:21:19;;;;;;;19.85;12.13;;;1.80;99.90;;;;;;5049198;28;20127;-68
2021/12/07 00:23:46;;;;;;;18.05;11.93;;;1.90;99.90;;;;;;5050036;28;20076;-68
2021/12/07 00:26:12;;;;;;;21.05;14.00;;;1.80;99.90;;;;;;5049799;28;20131;-68
2021/12/07 00:28:40;;;;;;;16.45;11.73;;;1.80;99.90;;;;;;5048874;28;20045;-68
2021/12/07 00:31:14;;;;;;;20.70;13.65;;;1.80;99.90;;;;;;5048700;28;20146;-68
2021/12/07 00:33:47;;;;;;;40.17;16.25;;;1.80;99.90;;;;;;5047716;28;20101;-68
2021/12/07 00:36:12;;;;;;;20.48;14.45;;;1.70;99.90;;;;;;5049846;28;20554;-68
2021/12/07 00:38:38;;;;;;;19.42;13.80;;;1.90;99.90;;;;;;5048528;28;20085;-68
2021/12/07 00:41:04;;;;;;;18.65;12.98;;;1.70;99.90;;;;;;5052202;28;20045;-68
2021/12/07 00:43:32;;;;;;;20.45;13.27;;;1.70;99.90;;;;;;5052578;28;20041;-69
2021/12/07 00:46:00;;;;;;;19.42;12.65;;;1.60;99.90;;;;;;5053286;28;20128;-68
2021/12/07 00:48:26;;;;;;;19.75;12.90;;;1.60;99.90;;;;;;5052360;28;20115;-68
2021/12/07 00:50:54;;;;;;;17.83;12.40;;;1.60;99.90;;;;;;5053436;28;20489;-68
2021/12/07 00:53:21;;;;;;;14.23;10.45;;;1.50;99.90;;;;;;5051642;28;20067;-68
2021/12/07 00:55:51;;;;;;;15.95;10.85;;;1.50;99.90;;;;;;5052344;28;20094;-68
2021/12/07 00:58:22;;;;;;;16.58;11.70;;;1.50;99.90;;;;;;5052438;28;20143;-69
2021/12/07 01:00:52;;;;;;;15.88;10.52;;;1.50;99.90;;;;;;5052745;28;20041;-68
2021/12/07 01:03:18;;;;;;;18.15;11.10;;;1.40;99.90;;;;;;5053626;28;20048;-68
2021/12/07 01:05:50;;;;;;;15.23;10.70;;;1.40;99.90;;;;;;5052545;28;20128;-68
2021/12/07 01:24:40;;;;;;;16.80;11.23;;;1.20;99.90;;;;;;5053053;28;20045;-68
2021/12/07 01:24:43;;;;;;;15.02;9.45;;;1.20;99.90;;;;;;5070444;28;20052;-68
2021/12/07 01:27:20;;;;;;;14.38;10.90;;;1.20;99.90;;;;;;5072105;28;20048;-68
2021/12/07 01:29:51;;;;;;;16.60;10.68;;;1.20;99.90;;;;;;5072145;28;20040;-68
2021/12/07 01:40:49;;;;;;;18.35;12.32;;;1.20;99.90;;;;;;5073030;28;20048;-68
2021/12/07 01:43:41;;;;;;;14.15;11.10;;;1.30;99.90;;;;;;5071303;28;20040;-68
2021/12/07 02:01:42;;;;;;;15.50;9.10;;;1.20;99.90;;;;;;5072327;28;20052;-68
2021/12/07 02:04:08;;;;;;;15.50;10.60;;;1.20;99.90;;;;;;5070399;28;20048;-68
2021/12/07 02:06:33;;;;;;;14.45;10.73;;;1.10;99.90;;;;;;5072436;28;20101;-68
2021/12/07 02:08:59;;;;;;;17.27;10.82;;;1.20;99.90;;;;;;5072582;28;20052;-68
2021/12/07 02:11:25;;;;;;;15.45;11.93;;;1.20;99.90;;;;;;5070655;28;20454;-68
2021/12/07 02:16:18;;;;;;;12.90;9.23;;;1.20;99.90;;;;;;5072220;28;20418;-68
2021/12/07 02:18:44;;;;;;;13.65;9.85;;;1.20;99.90;;;;;;5071303;28;20041;-68
2021/12/07 02:21:19;;;;;;;14.60;11.30;;;1.20;99.90;;;;;;5070939;28;20044;-68
2021/12/07 02:23:45;;;;;;;15.73;11.40;;;1.20;99.90;;;;;;5070435;28;20083;-68
2021/12/07 02:26:10;;;;;;;17.35;11.80;;;1.30;99.90;;;;;;5070275;28;20044;-68
2021/12/07 02:28:39;;;;;;;16.23;10.82;;;1.30;99.90;;;;;;5071749;28;20048;-68
2021/12/07 02:31:06;;;;;;;14.80;10.18;;;1.20;99.90;;;;;;5072319;28;20128;-68
2021/12/07 02:33:32;;;;;;;17.70;13.15;;;1.20;99.90;;;;;;5060605;28;20516;-68
2021/12/07 02:35:58;;;;;;;14.32;9.80;;;1.20;99.90;;;;;;5063064;28;20093;-68
2021/12/07 02:38:24;;;;;;;15.63;11.45;;;1.20;99.90;;;;;;5071941;28;20049;-68
2021/12/07 02:40:50;;;;;;;14.77;10.45;;;1.30;99.90;;;;;;5070665;28;20399;-68
2021/12/07 02:43:15;;;;;;;16.50;11.68;;;1.30;99.90;;;;;;5070486;28;20056;-67
2021/12/07 02:45:41;;;;;;;14.65;10.65;;;1.30;99.90;;;;;;5071011;28;20044;-68
2021/12/07 02:48:07;;;;;;;15.30;10.88;;;1.40;99.90;;;;;;5071917;28;20162;-67
2021/12/07 02:50:33;;;;;;;14.73;10.38;;;1.40;99.90;;;;;;5071330;28;20051;-68
2021/12/07 02:53:00;;;;;;;15.95;10.52;;;1.30;99.90;;;;;;5070721;28;20061;-67
2021/12/07 02:55:26;;;;;;;16.52;11.80;;;1.40;99.90;;;;;;5071596;28;20442;-67
2021/12/07 02:57:51;;;;;;;15.05;10.27;;;1.40;99.90;;;;;;5069890;28;20118;-67
2021/12/07 03:00:22;;;;;;;14.88;9.93;;;1.30;99.90;;;;;;5069497;28;20088;-68
2021/12/07 03:03:00;;;;;;;12.43;9.18;;;1.30;99.90;;;;;;5070340;28;20554;-67
2021/12/07 03:05:42;;;;;;;12.77;8.93;;;1.30;99.90;;;;;;5070127;28;20509;-68
2021/12/07 03:09:18;;;;;;;11.32;8.43;;;1.20;99.90;;;;;;5070728;28;20055;-68
2021/12/07 03:28:07;;;;;;;9.82;7.18;;;0.90;99.90;;;;;;5070343;28;20846;-68
2021/12/07 03:30:34;;;;;;;11.95;8.63;;;1.00;99.90;;;;;;5069600;28;20151;-68
2021/12/07 03:33:00;;;;;;;9.45;7.20;;;0.90;99.90;;;;;;5070817;28;20045;-68
2021/12/07 03:35:26;;;;;;;11.05;7.82;;;0.80;99.90;;;;;;5046847;28;20487;-68
2021/12/07 03:37:53;;;;;;;10.10;7.05;;;0.80;99.90;;;;;;5069357;28;20572;-67
2021/12/07 03:40:19;;;;;;;8.35;6.60;;;0.80;99.90;;;;;;5055858;28;20403;-68
2021/12/07 03:42:44;;;;;;;12.05;7.03;;;0.80;99.90;;;;;;5049822;28;20063;-67
2021/12/07 03:45:11;;;;;;;10.48;7.53;;;0.70;99.90;;;;;;5053711;28;20114;-67
2021/12/07 03:47:38;;;;;;;9.88;6.63;;;0.90;99.90;;;;;;5070522;28;20372;-67
2021/12/07 03:50:06;;;;;;;8.20;6.75;;;0.70;99.90;;;;;;5070159;28;20044;-67
2021/12/07 03:52:31;;;;;;;8.43;6.90;;;0.70;99.90;;;;;;5070229;28;20064;-68
2021/12/07 03:54:57;;;;;;;8.63;6.85;;;0.70;99.90;;;;;;5070666;28;20379;-68
2021/12/07 03:57:23;;;;;;;8.60;6.70;;;0.60;99.90;;;;;;5069867;28;20072;-67
2021/12/07 03:59:48;;;;;;;9.60;7.55;;;0.60;99.90;;;;;;5070283;28;20098;-68
2021/12/07 04:02:14;;;;;;;9.57;7.05;;;0.60;99.90;;;;;;5070682;28;20044;-67
2021/12/07 04:04:40;;;;;;;8.95;6.07;;;0.60;99.90;;;;;;5069427;28;20047;-67
2021/12/07 04:07:06;;;;;;;10.05;6.70;;;0.60;99.90;;;;;;5069551;28;20036;-67
2021/12/07 04:09:32;;;;;;;9.43;6.40;;;0.50;99.90;;;;;;5068850;28;20489;-68
2021/12/07 04:11:59;;;;;;;8.35;7.32;;;0.60;99.90;;;;;;5068744;28;20044;-67
2021/12/07 04:14:25;;;;;;;10.60;6.70;;;0.50;99.90;;;;;;5068825;28;20071;-67
2021/12/07 04:16:50;;;;;;;9.32;6.68;;;0.50;99.90;;;;;;5068622;28;20075;-68
2021/12/07 04:19:16;;;;;;;11.75;6.47;;;0.40;99.90;;;;;;5068587;28;20562;-67
2021/12/07 04:21:42;;;;;;;10.10;6.75;;;0.50;99.90;;;;;;5068693;28;20055;-68
2021/12/07 04:24:08;;;;;;;9.07;6.75;;;0.50;99.90;;;;;;5069536;28;20074;-67
2021/12/07 04:26:34;;;;;;;10.63;7.18;;;0.50;99.90;;;;;;5070069;28;20127;-67
2021/12/07 04:28:59;;;;;;;7.78;6.13;;;0.50;99.90;;;;;;5068970;28;20553;-68
2021/12/07 04:31:25;;;;;;;9.10;6.35;;;0.60;99.90;;;;;;5069479;28;20041;-67
2021/12/07 04:33:51;;;;;;;8.13;5.95;;;0.50;99.90;;;;;;5070143;28;20049;-67
2021/12/07 04:36:17;;;;;;;7.43;5.68;;;0.50;99.90;;;;;;5070415;28;20059;-67
2021/12/07 04:38:42;;;;;;;9.68;6.88;;;0.60;99.90;;;;;;5068016;28;20135;-67
2021/12/07 04:41:09;;;;;;;9.45;7.00;;;0.70;99.90;;;;;;5068961;28;20049;-67
2021/12/07 04:43:36;;;;;;;12.20;7.10;;;0.80;99.90;;;;;;5068661;28;20049;-68
2021/12/07 04:46:20;;;;;;;12.13;6.82;;;0.80;99.90;;;;;;5066119;28;20418;-67
2021/12/07 04:59:24;;;;;;;8.95;5.75;;;1.00;99.90;;;;;;5029552;28;20050;-67
2021/12/07 05:01:50;;;;;;;8.10;5.82;;;0.90;99.90;;;;;;5028801;28;20054;-67
2021/12/07 05:04:21;;;;;;;7.28;6.10;;;0.90;99.90;;;;;;5029197;28;20054;-68
2021/12/07 05:06:50;;;;;;;8.10;5.78;;;0.90;99.90;;;;;;5029191;28;20069;-68
2021/12/07 05:09:38;;;;;;;11.80;6.35;;;0.90;99.90;;;;;;5028665;28;20049;-68
2021/12/07 05:12:32;;;;;;;9.18;5.15;;;0.90;99.90;;;;;;5028670;28;20104;-67
2021/12/07 05:14:59;;;;;;;10.10;5.60;;;0.90;99.90;;;;;;5028611;28;20049;-68
2021/12/07 05:26:09;;;;;;;8.85;6.35;;;1.20;99.90;;;;;;5057286;28;20049;-67
2021/12/07 05:39:22;;;;;;;11.52;6.68;;;1.20;99.90;;;;;;5053321;28;20056;-67
2021/12/07 05:41:47;;;;;;;8.50;5.55;;;1.20;99.90;;;;;;5052064;28;20533;-67
2021/12/07 05:44:14;;;;;;;10.05;6.18;;;1.20;99.90;;;;;;5051792;28;20090;-68
2021/12/07 05:46:39;;;;;;;9.40;5.57;;;1.30;99.90;;;;;;5052743;28;20407;-68
2021/12/07 05:49:05;;;;;;;11.15;6.32;;;1.40;99.90;;;;;;5052395;28;20049;-67
2021/12/07 05:51:30;;;;;;;9.88;5.93;;;1.40;99.90;;;;;;5051431;28;20514;-68
2021/12/07 05:53:56;;;;;;;8.18;5.18;;;1.40;99.90;;;;;;5051355;28;20053;-68
2021/12/07 05:56:21;;;;;;;10.82;6.28;;;1.50;99.90;;;;;;5054951;28;20415;-67
2021/12/07 05:58:47;;;;;;;8.98;4.22;;;1.60;99.90;;;;;;5049688;28;20136;-67
2021/12/07 06:01:13;;;;;;;9.30;4.68;;;1.70;99.90;;;;;;5057374;28;20041;-68
2021/12/07 06:03:38;;;;;;;8.45;5.22;;;1.80;99.90;;;;;;5053408;28;20436;-68
2021/12/07 06:06:04;;;;;;;9.93;4.03;;;1.80;99.90;;;;;;5052642;28;20106;-68
2021/12/07 06:08:30;;;;;;;9.52;5.32;;;1.90;99.90;;;;;;5058654;28;20556;-68
2021/12/07 06:10:56;;;;;;;9.38;4.40;;;2.00;99.90;;;;;;5054753;28;20395;-68
2021/12/07 06:13:22;;;;;;;11.93;4.55;;;2.30;99.90;;;;;;5052336;28;20049;-68
2021/12/07 06:15:48;;;;;;;8.55;3.80;;;2.00;99.90;;;;;;5050953;28;20555;-67
2021/12/07 06:18:14;;;;;;;11.60;4.60;;;2.10;99.90;;;;;;5051750;28;20037;-67
2021/12/07 06:20:41;;;;;;;12.57;4.82;;;2.10;99.90;;;;;;5050617;28;20753;-68
2021/12/07 06:23:09;;;;;;;6.68;3.88;;;2.00;99.90;;;;;;5052384;28;20063;-68
2021/12/07 06:25:35;;;;;;;8.98;4.13;;;2.10;99.90;;;;;;5049801;28;20053;-68
2021/12/07 06:28:01;;;;;;;15.82;4.07;;;2.10;99.90;;;;;;5051138;28;20449;-67
2021/12/07 06:30:26;;;;;;;6.97;3.63;;;2.10;99.90;;;;;;5052047;28;20088;-67
2021/12/07 06:32:52;;;;;;;7.88;4.30;;;2.10;99.90;;;;;;5050911;28;20057;-68
2021/12/07 06:35:17;;;;;;;7.60;4.65;;;2.20;99.90;;;;;;5043839;28;20053;-67
2021/12/07 06:37:43;;;;;;;8.60;5.43;;;2.10;99.90;;;;;;5070995;28;20048;-68
2021/12/07 06:40:11;;;;;;;8.60;4.65;;;2.00;99.90;;;;;;5052964;28;20041;-67
2021/12/07 06:42:38;;;;;;;7.28;4.72;;;1.90;99.90;;;;;;5050585;28;20080;-67
2021/12/07 06:45:07;;;;;;;7.00;4.63;;;1.80;99.90;;;;;;5069236;28;20048;-67
2021/12/07 06:47:33;;;;;;;10.43;5.13;;;1.80;99.90;;;;;;5071533;28;20040;-68
2021/12/07 06:49:58;;;;;;;8.25;4.20;;;1.70;99.90;;;;;;5071716;28;20122;-67
2021/12/07 06:52:24;;;;;;;8.50;4.57;;;1.60;99.90;;;;;;5053472;28;20061;-67
2021/12/07 06:54:50;;;;;;;9.15;4.43;;;1.60;99.90;;;;;;5049677;28;20088;-68
2021/12/07 06:57:15;;;;;;;8.48;5.20;;;1.60;99.90;;;;;;5049957;28;20045;-67
2021/12/07 06:59:41;;;;;;;52.83;9.75;;;1.50;99.90;;;;;;5050358;28;20048;-68
2021/12/07 07:02:08;;;;;;;10.50;4.93;;;1.50;99.90;;;;;;5049943;28;20076;-68
2021/12/07 07:04:33;;;;;;;8.90;5.20;;;1.40;99.90;;;;;;5048411;28;20732;-68
2021/12/07 07:06:59;;;;;;;11.80;4.60;;;1.40;99.90;;;;;;5059167;28;20053;-67
2021/12/07 07:09:24;;;;;;;43.90;6.80;;;1.40;99.90;;;;;;5051283;28;20045;-67
2021/12/07 07:11:50;;;;;;;7.47;4.15;;;1.30;99.90;;;;;;5050945;28;20045;-67
2021/12/07 07:14:16;;;;;;;8.18;4.25;;;1.40;99.90;;;;;;5050439;28;20056;-68
2021/12/07 07:16:41;;;;;;;7.63;4.20;;;1.30;99.90;;;;;;5049581;28;20099;-67
2021/12/07 07:19:07;;;;;;;15.73;4.55;;;1.30;99.90;;;;;;5049866;28;20455;-68
2021/12/07 07:21:33;;;;;;;6.20;3.58;;;1.20;99.90;;;;;;5048854;28;20463;-68
2021/12/07 07:23:58;;;;;;;8.85;4.43;;;1.20;99.90;;;;;;5046711;28;20042;-68
2021/12/07 07:26:24;;;;;;;4.63;3.13;;;1.20;99.90;;;;;;5045850;28;20040;-67
2021/12/07 07:28:50;;;;;;;7.03;3.80;;;1.10;99.90;;;;;;5067105;28;20044;-68
2021/12/07 07:31:15;;;;;;;6.53;3.80;;;1.20;99.90;;;;;;5051060;28;20094;-67
2021/12/07 07:33:41;;;;;;;7.45;4.03;;;1.00;99.90;;;;;;5050285;28;20052;-68
2021/12/07 07:36:07;;;;;;;12.98;5.22;;;1.00;99.90;;;;;;5068437;28;20055;-67
2021/12/07 07:38:34;;;;;;;6.65;3.72;;;1.00;99.90;;;;;;5066427;28;20890;-68
2021/12/07 07:41:00;;;;;;;5.22;3.80;;;1.00;99.90;;;;;;5056699;28;20072;-67
2021/12/07 07:43:25;;;;;;;11.73;4.03;;;1.00;99.90;;;;;;5050732;28;20116;-67
2021/12/07 07:45:53;;;;;;;7.13;3.97;;;1.00;99.90;;;;;;5049251;28;20088;-68
2021/12/07 07:48:20;;;;;;;5.15;3.35;;;1.00;99.90;;;;;;5063334;28;20051;-67
2021/12/07 07:50:47;;;;;;;8.32;3.80;;;0.90;99.90;;;;;;5068193;28;20136;-67
2021/12/07 07:53:13;;;;;;;7.07;4.28;;;1.00;99.90;;;;;;5067673;28;20131;-67
2021/12/07 07:55:42;;;;;;;10.23;4.10;;;1.00;99.90;;;;;;5052079;28;20203;-67
2021/12/07 07:58:09;;;;;;;6.32;3.40;;;1.00;99.90;;;;;;5064768;28;20040;-68
2021/12/07 08:00:35;;;;;;;7.93;4.78;;;1.00;99.90;;;;;;5047973;28;20049;-67
2021/12/07 08:03:01;;;;;;;11.77;4.78;;;1.00;99.90;;;;;;5044114;28;20040;-67
2021/12/07 08:05:27;;;;;;;11.00;5.18;;;0.90;99.90;;;;;;5049986;28;20049;-68
2021/12/07 08:07:52;;;;;;;5.05;3.35;;;1.00;99.90;;;;;;5050073;28;20488;-68
2021/12/07 08:10:28;;;;;;;9.43;4.32;;;1.00;99.90;;;;;;5049493;28;20495;-67
2021/12/07 08:12:55;;;;;;;10.45;4.18;;;0.90;99.90;;;;;;5050265;28;20045;-68
2021/12/07 08:15:22;;;;;;;14.63;5.90;;;0.90;99.90;;;;;;5050466;28;20132;-67
2021/12/07 08:17:47;;;;;;;10.13;4.00;;;0.90;99.90;;;;;;5055373;28;20072;-67
2021/12/07 08:20:13;;;;;;;5.30;3.50;;;1.00;99.90;;;;;;5054246;28;20460;-68
2021/12/07 08:22:39;;;;;;;11.27;4.50;;;0.90;99.90;;;;;;5065622;28;20050;-67
2021/12/07 08:25:05;;;;;;;8.50;4.60;;;1.00;99.90;;;;;;5068313;28;20053;-67
2021/12/07 08:27:31;;;;;;;8.43;3.83;;;0.90;99.90;;;;;;5068560;28;20043;-68
2021/12/07 08:29:56;;;;;;;9.00;4.85;;;0.90;99.90;;;;;;5068717;28;20056;-67
2021/12/07 08:32:22;;;;;;;6.82;3.97;;;1.00;99.90;;;;;;5069426;28;20486;-67
2021/12/07 08:34:47;;;;;;;12.07;4.97;;;0.90;99.90;;;;;;5068546;28;20053;-67
2021/12/07 08:37:13;;;;;;;10.70;4.57;;;1.00;99.90;;;;;;5050306;28;20040;-68
2021/12/07 08:39:38;;;;;;;10.25;4.43;;;1.10;99.90;;;;;;5063086;28;20067;-68
2021/12/07 08:42:05;;;;;;;8.32;4.47;;;1.00;99.90;;;;;;5052824;28;20624;-67
2021/12/07 08:44:32;;;;;;;9.45;4.40;;;1.10;99.90;;;;;;5064554;28;20040;-68
2021/12/07 08:46:57;;;;;;;13.05;4.78;;;1.10;99.90;;;;;;5050682;28;20055;-67
2021/12/07 08:49:23;;;;;;;12.27;4.53;;;1.10;99.90;;;;;;5051810;28;20044;-68
2021/12/07 08:51:50;;;;;;;6.97;4.35;;;1.20;99.90;;;;;;5046852;28;20496;-68
2021/12/07 08:59:40;;;;;;;4.75;3.50;;;1.40;99.90;;;;;;5046401;28;20052;-68
2021/12/07 09:02:07;;;;;;;8.25;4.95;;;1.40;99.90;;;;;;5053516;28;20049;-70
2021/12/07 09:04:33;;;;;;;10.48;3.33;;;1.40;99.90;;;;;;5058038;28;20041;-71
2021/12/07 09:06:59;;;;;;;7.03;3.42;;;1.50;99.90;;;;;;5066720;28;20040;-73
2021/12/07 09:09:24;;;;;;;8.65;3.80;;;1.50;99.90;;;;;;5059496;28;20044;-69
2021/12/07 09:11:53;;;;;;;12.48;4.15;;;1.60;99.90;;;;;;5053326;28;20049;-74
2021/12/07 09:14:19;;;;;;;12.52;4.00;;;1.70;99.90;;;;;;5068107;28;20052;-72
2021/12/07 09:16:45;;;;;;;8.63;3.33;;;1.80;99.90;;;;;;5071849;28;20051;-72
2021/12/07 09:19:11;;;;;;;7.18;3.85;;;1.90;99.90;;;;;;5071664;28;20079;-73
2021/12/07 09:21:38;;;;;;;6.20;3.63;;;2.00;99.90;;;;;;5044163;28;20135;-70
2021/12/07 09:24:05;;;;;;;8.18;3.58;;;2.10;99.90;;;;;;5053063;28;20056;-73
2021/12/07 09:26:31;;;;;;;6.80;3.33;;;2.20;99.90;;;;;;5052280;28;20049;-73
2021/12/07 09:28:57;;;;;;;6.45;3.08;;;2.30;99.90;;;;;;5052044;28;20514;-74
2021/12/07 09:31:23;;;;;;;6.15;2.90;;;2.40;99.90;;;;;;5044210;28;20136;-74
2021/12/07 09:33:49;;;;;;;21.15;4.10;;;2.50;99.90;;;;;;5039275;28;20495;-73
2021/12/07 09:36:15;;;;;;;5.63;2.70;;;2.50;99.90;;;;;;5060816;28;20048;-74
2021/12/07 09:38:41;;;;;;;12.43;4.13;;;2.70;99.90;;;;;;5072299;28;20484;-74
2021/12/07 09:41:09;;;;;;;12.15;3.75;;;2.90;99.90;;;;;;5058903;28;20068;-73
2021/12/07 09:43:36;;;;;;;9.35;4.32;;;3.00;99.90;;;;;;5046715;28;20081;-73
2021/12/07 09:46:03;;;;;;;12.75;4.10;;;3.20;99.90;;;;;;5031871;28;20130;-73
2021/12/07 09:48:29;;;;;;;11.48;4.68;;;3.40;99.90;;;;;;5030507;28;20079;-73
2021/12/07 09:50:55;;;;;;;10.00;5.35;;;3.50;99.90;;;;;;5043471;28;20053;-74
2021/12/07 09:53:23;;;;;;;14.00;4.10;;;3.60;99.90;;;;;;5044068;28;20136;-74
2021/12/07 09:55:49;;;;;;;5.00;3.08;;;3.60;99.90;;;;;;5044129;28;20060;-73
2021/12/07 09:58:16;;;;;;;8.93;3.40;;;3.70;99.90;;;;;;5042827;28;20049;-74
2021/12/07 10:00:44;;;;;;;13.40;4.43;;;3.70;99.90;;;;;;5049888;28;20083;-74
2021/12/07 10:03:10;;;;;;;12.65;4.20;;;3.70;99.90;;;;;;5050577;28;20190;-74
2021/12/07 10:05:39;;;;;;;15.20;4.47;;;3.70;99.90;;;;;;5045101;28;20049;-72
2021/12/07 10:08:05;;;;;;;11.23;4.10;;;3.80;99.90;;;;;;5047868;28;20139;-72
2021/12/07 10:10:46;;;;;;;11.32;3.80;;;3.80;99.90;;;;;;5046588;28;20435;-72
2021/12/07 10:13:14;;;;;;;15.55;3.53;;;3.80;99.90;;;;;;5048498;28;20057;-72
2021/12/07 10:15:43;;;;;;;4.22;2.72;;;3.90;99.90;;;;;;5034623;28;20053;-71
2021/12/07 10:18:12;;;;;;;21.10;4.10;;;3.90;99.90;;;;;;5048910;28;20075;-72
2021/12/07 10:20:50;;;;;;;6.07;3.63;;;3.90;99.90;;;;;;5050690;28;20493;-72
2021/12/07 10:23:21;;;;;;;11.25;3.40;;;4.00;99.90;;;;;;5048947;28;20057;-72
2021/12/07 10:25:59;;;;;;;5.47;2.53;;;4.00;99.90;;;;;;5051890;28;20045;-72
2021/12/07 10:28:26;;;;;;;10.68;3.28;;;4.10;99.90;;;;;;5052559;28;20056;-72
2021/12/07 10:30:52;;;;;;;10.55;4.38;;;4.20;99.90;;;;;;5051276;28;20048;-72
2021/12/07 10:33:54;;;;;;;9.02;3.65;;;4.30;99.90;;;;;;5050655;28;20110;-72
2021/12/07 10:36:51;;;;;;;7.88;3.58;;;4.40;99.90;;;;;;5044204;28;20045;-72
2021/12/07 10:39:26;;;;;;;8.27;3.38;;;4.50;99.90;;;;;;5051863;28;20053;-73
2021/12/07 10:42:03;;;;;;;3.75;3.15;;;4.60;99.90;;;;;;5050560;28;20060;-73
2021/12/07 10:44:34;;;;;;;20.80;4.43;;;4.60;99.90;;;;;;5050861;28;20086;-74
2021/12/07 10:47:07;;;;;;;12.77;3.63;;;4.70;99.90;;;;;;5050442;28;20081;-73
2021/12/07 10:49:43;;;;;;;10.65;3.25;;;4.80;99.90;;;;;;5050344;28;20079;-73
2021/12/07 10:52:26;;;;;;;9.40;3.67;;;4.70;99.90;;;;;;5049666;28;20064;-73
2021/12/07 10:55:07;;;;;;;9.80;2.80;;;4.80;99.90;;;;;;5043726;28;20561;-73
2021/12/07 10:57:32;;;;;;;8.00;3.50;;;4.80;99.90;;;;;;5047480;28;20049;-74
2021/12/07 11:00:07;;;;;;;8.32;3.40;;;4.80;99.90;;;;;;5049307;28;20110;-73
2021/12/07 11:02:36;;;;;;;10.73;3.25;;;4.90;99.90;;;;;;5031261;28;20049;-73
2021/12/07 11:05:05;;;;;;;11.20;2.78;;;4.90;99.90;;;;;;5030804;28;20052;-74
2021/12/07 11:07:31;;;;;;;8.93;3.47;;;4.90;99.90;;;;;;5029934;28;20150;-71
2021/12/07 11:10:18;;;;;;;7.47;2.90;;;5.00;99.90;;;;;;5030465;28;20104;-71
2021/12/07 11:13:11;;;;;;;4.82;2.75;;;5.00;99.90;;;;;;5029383;28;20049;-70
2021/12/07 11:15:47;;;;;;;;;;;5.00;99.90;;;;;;5030005;28;20053;-71
2021/12/07 11:18:13;;;;;;;13.45;2.78;;;5.00;99.90;;;;;;5031158;28;20439;-64
2021/12/07 11:20:38;;;;;;;6.80;2.75;;;5.10;99.90;;;;;;5030251;28;20046;-64
2021/12/07 11:23:13;;;;;;;6.03;3.10;;;5.00;99.90;;;;;;5030503;28;20141;-64
2021/12/07 11:31:40;;;;;;;12.95;3.90;;;5.20;99.90;;;;;;5031040;28;20053;-64
2021/12/07 11:34:19;;;;;;;11.02;3.25;;;5.30;99.90;;;;;;5029055;28;20084;-64
2021/12/07 11:37:02;;;;;;;6.32;2.90;;;5.40;99.90;;;;;;5030589;28;20184;-64
2021/12/07 11:39:47;;;;;;;7.65;2.80;;;5.40;99.90;;;;;;5031035;28;20045;-64
2021/12/07 11:42:17;;;;;;;8.63;3.75;;;5.50;99.90;;;;;;5030213;28;20053;-66
2021/12/07 11:45:04;;;;;;;7.03;3.63;;;5.60;99.90;;;;;;5030490;28;20110;-67
2021/12/07 11:47:42;;;;;;;8.38;2.20;;;5.60;99.90;;;;;;5028495;28;20049;-66
2021/12/07 11:50:13;;;;;;;10.60;2.85;;;5.60;99.90;;;;;;5039689;28;20046;-66
2021/12/07 11:52:39;;;;;;;7.77;2.67;;;5.60;99.90;;;;;;5050370;28;20132;-66
2021/12/07 11:55:07;;;;;;;12.25;2.50;;;5.70;99.90;;;;;;5047022;28;20550;-66
2021/12/07 11:57:34;;;;;;;14.25;4.00;;;5.70;99.90;;;;;;5050341;28;20095;-67
2021/12/07 11:59:59;;;;;;;7.43;2.50;;;5.70;99.90;;;;;;5050326;28;20037;-66
2021/12/07 12:02:25;;;;;;;9.68;2.75;;;5.70;99.90;;;;;;5049897;28;20399;-66
2021/12/07 12:04:51;;;;;;;8.20;3.15;;;5.80;99.90;;;;;;5050173;28;20106;-66
2021/12/07 12:07:19;;;;;;;5.60;2.63;;;5.80;99.90;;;;;;5050460;28;20040;-67
2021/12/07 12:09:49;;;;;;;9.10;2.67;;;5.80;99.90;;;;;;5047746;28;20053;-66
2021/12/07 12:12:49;;;;;;;13.27;2.67;;;5.80;99.90;;;;;;5057944;28;20087;-66
2021/12/07 12:15:30;;;;;;;7.47;2.50;;;5.90;99.90;;;;;;5055723;28;20073;-66
2021/12/07 12:18:26;;;;;;;8.85;2.85;;;5.90;99.90;;;;;;5056069;28;20053;-66
2021/12/07 12:21:00;;;;;;;9.82;2.78;;;6.00;99.90;;;;;;5028997;28;20054;-67
2021/12/07 12:23:51;;;;;;;7.90;2.55;;;6.00;99.90;;;;;;5063761;28;20143;-67
2021/12/07 12:26:22;;;;;;;8.40;3.65;;;6.00;99.90;;;;;;5065280;28;20063;-67
2021/12/07 12:28:49;;;;;;;9.05;2.53;;;6.00;99.90;;;;;;5048369;28;20880;-67
2021/12/07 12:31:17;;;;;;;7.90;2.75;;;6.00;99.90;;;;;;5049535;28;20047;-67
2021/12/07 12:33:55;;;;;;;10.60;3.33;;;6.00;99.90;;;;;;5050099;28;20407;-67
2021/12/07 12:36:24;;;;;;;5.55;2.45;;;6.00;99.90;;;;;;5053079;28;20085;-67
2021/12/07 12:38:57;;;;;;;9.55;2.22;;;6.00;99.90;;;;;;5053865;28;20111;-67
2021/12/07 12:41:22;;;;;;;13.38;2.47;;;6.00;99.90;;;;;;5054176;28;20123;-67
2021/12/07 12:43:54;;;;;;;7.32;2.22;;;6.00;99.90;;;;;;5052246;28;20129;-67
2021/12/07 12:46:28;;;;;;;10.73;2.45;;;6.00;99.90;;;;;;5042622;28;20033;-67
2021/12/07 12:48:56;;;;;;;8.30;2.72;;;6.00;99.90;;;;;;5036741;28;20092;-67
2021/12/07 12:51:30;;;;;;;7.20;2.22;;;5.90;99.90;;;;;;5033439;28;20057;-67
2021/12/07 12:53:56;;;;;;;11.77;3.35;;;5.90;99.90;;;;;;5033619;28;20065;-67
2021/12/07 12:56:30;;;;;;;9.48;2.67;;;5.80;99.90;;;;;;5038455;28;20385;-67
2021/12/07 12:59:00;;;;;;;14.32;3.08;;;5.80;99.90;;;;;;5049495;28;20053;-67
2021/12/07 13:01:30;;;;;;;5.13;2.35;;;5.70;99.90;;;;;;5052590;28;20518;-67
2021/12/07 13:04:05;;;;;;;14.00;3.20;;;5.70;99.90;;;;;;5053696;28;20101;-67
2021/12/07 13:06:40;;;;;;;6.88;2.45;;;5.60;99.90;;;;;;5052866;28;20052;-67
2021/12/07 13:09:07;;;;;;;8.82;3.22;;;5.60;99.90;;;;;;5053579;28;20084;-67
2021/12/07 13:12:03;;;;;;;6.50;2.92;;;5.60;99.90;;;;;;5052915;28;20460;-67
2021/12/07 13:14:37;;;;;;;16.17;3.70;;;5.60;99.90;;;;;;5051834;28;20056;-67
2021/12/07 13:17:07;;;;;;;5.00;2.83;;;5.60;99.90;;;;;;5051805;28;20055;-67
2021/12/07 13:20:09;;;;;;;7.82;3.20;;;5.50;99.90;;;;;;5048057;28;20080;-67
2021/12/07 13:22:43;;;;;;;5.85;2.67;;;5.50;99.90;;;;;;4982995;28;20047;-66
2021/12/07 13:25:13;;;;;;;8.60;3.25;;;5.50;99.90;;;;;;5024542;28;20119;-67
2021/12/07 13:28:16;;;;;;;12.07;3.70;;;5.50;99.90;;;;;;5043375;28;20044;-67
2021/12/07 13:30:45;;;;;;;13.95;3.25;;;5.50;99.90;;;;;;5031643;28;20446;-67
2021/12/07 13:33:35;;;;;;;10.20;2.92;;;5.50;99.90;;;;;;5050575;28;20053;-67
2021/12/07 13:36:39;;;;;;;12.55;3.35;;;5.50;99.90;;;;;;5052853;28;20488;-66
2021/12/07 13:39:28;;;;;;;8.15;3.05;;;5.40;99.90;;;;;;5042410;28;20045;-66
2021/12/07 13:42:15;;;;;;;10.15;3.50;;;5.40;99.90;;;;;;5032422;28;20120;-66
2021/12/07 13:44:46;;;;;;;9.00;3.08;;;5.40;99.90;;;;;;5051318;28;20472;-66
2021/12/07 13:47:34;;;;;;;11.82;3.63;;;5.40;99.90;;;;;;5051579;28;20053;-66
2021/12/07 13:50:12;;;;;;;9.35;3.85;;;5.40;99.90;;;;;;5045124;28;20048;-66
2021/12/07 13:52:42;;;;;;;6.45;2.75;;;5.40;99.90;;;;;;5033209;28;20045;-66
2021/12/07 13:55:11;;;;;;;13.80;3.53;;;5.30;99.90;;;;;;5046122;28;20049;-66
2021/12/07 13:57:39;;;;;;;6.80;3.08;;;5.30;99.90;;;;;;5037429;28;20053;-66
2021/12/07 14:00:11;;;;;;;10.32;3.53;;;5.20;99.90;;;;;;5032665;28;20611;-66
2021/12/07 14:02:38;;;;;;;7.18;2.33;;;5.20;99.90;;;;;;5042094;28;20041;-66
2021/12/07 14:05:09;;;;;;;12.60;3.63;;;5.10;99.90;;;;;;5051142;28;20040;-66
2021/12/07 14:07:36;;;;;;;18.65;3.88;;;5.10;99.90;;;;;;5052090;28;20045;-66
2021/12/07 14:10:08;;;;;;;7.85;3.03;;;5.00;99.90;;;;;;5050382;28;20053;-66
2021/12/07 14:12:35;;;;;;;19.88;3.45;;;5.00;99.90;;;;;;5051068;28;20056;-66
2021/12/07 14:15:28;;;;;;;10.18;3.85;;;4.90;99.90;;;;;;5051462;28;20045;-66
2021/12/07 14:17:58;;;;;;;;;;;4.80;99.90;;;;;;5051571;28;20049;-66
2021/12/07 14:20:36;;;;;;;9.75;2.47;;;4.70;99.90;;;;;;5052429;28;19970;-66
2021/12/07 14:23:33;;;;;;;10.10;3.28;;;4.70;99.90;;;;;;5050887;28;20462;-66
2021/12/07 14:25:58;;;;;;;9.82;2.45;;;4.60;99.90;;;;;;5052315;28;20044;-66
2021/12/07 14:28:42;;;;;;;10.82;3.13;;;4.50;99.90;;;;;;5050585;28;20102;-66
2021/12/07 14:31:39;;;;;;;13.75;3.80;;;4.50;99.90;;;;;;5050212;28;20380;-65
2021/12/07 14:34:08;;;;;;;9.93;3.78;;;4.40;99.90;;;;;;5051734;28;20488;-66
2021/12/07 14:36:44;;;;;;;11.73;3.92;;;4.40;99.90;;;;;;5050978;28;20036;-66
2021/12/07 14:39:14;;;;;;;6.40;2.72;;;4.30;99.90;;;;;;5051951;28;20044;-66
2021/12/07 14:42:04;;;;;;;10.50;2.80;;;4.30;99.90;;;;;;5051475;28;20052;-66
2021/12/07 14:44:32;;;;;;;10.13;3.42;;;4.20;99.90;;;;;;5051212;28;20506;-66